»·PEaware :: N734TL KRNO-KSCK

N734TL :: KRNO-KSCK

FLIGHT INFORMATION

Flight Status: Arrived
Operator: Privately registered:
United States
More flights under this callsign
Pilot: Anonymous 28237 (28237)
Aircraft: CESSNA 172 SKYHAWK
(C172)
More flights by this aircraft type
Origin: KRNO Reno/Tahoe Intl
United States
Destination: KSCK Stockton Metro
United States
More flights between these airports :: More routes between these airports
Route: +VERDI TRUCK SWR TIPRE EVETT
File this flight plan on PilotEdge
Remarks: +CW /
Altitude:
(Current/Filed)
12,000ft
Speed:
(Current/Filed)
110kts
Departed: 21-Mar-20 08:00 PM
Arrived: 21-Mar-20 09:16 PM
Distance/Time
Traveled:
119nm/1:16
Distance/Time
To Go:
Arrived

Flight Plot

Page will automatically refresh every two minutes.


Map Options




Map Legend


Flown Route
Filed Route
Departure Airport
Arrival Airport
Navaid (VOR, NDB)
Fix

Horizontal Profiles

Position Reports

Time Latitude Longitude Heading Altitude Ground
Speed
21-Mar-20 19:41 39.499709 -119.764886 269 4419ft 0kts
21-Mar-20 19:42 39.499709 -119.764886 269 4419ft 0kts
21-Mar-20 19:43 39.499709 -119.764886 269 4419ft 0kts
21-Mar-20 19:44 39.499709 -119.764886 269 4419ft 0kts
21-Mar-20 19:45 39.499709 -119.764886 269 4419ft 0kts
21-Mar-20 19:46 39.499709 -119.764886 269 4419ft 0kts
21-Mar-20 19:47 39.499709 -119.764886 269 4419ft 0kts
21-Mar-20 19:48 39.499709 -119.764886 269 4419ft 0kts
21-Mar-20 19:49 39.499709 -119.764886 269 4419ft 0kts
21-Mar-20 19:50 39.499829 -119.765222 335 4419ft 11kts
21-Mar-20 19:51 39.505395 -119.765716 0 4419ft 26kts
21-Mar-20 19:52 39.510162 -119.765560 31 4419ft 5kts
21-Mar-20 19:53 39.513414 -119.765154 327 4419ft 10kts
21-Mar-20 19:54 39.513708 -119.765557 285 4419ft 0kts
21-Mar-20 19:55 39.513708 -119.765558 285 4419ft 0kts
21-Mar-20 19:56 39.513708 -119.765557 285 4419ft 0kts
21-Mar-20 19:57 39.513708 -119.765557 285 4419ft 0kts
21-Mar-20 19:58 39.513768 -119.766512 255 4419ft 19kts
21-Mar-20 19:59 39.500710 -119.767572 178 4603ft 94kts
21-Mar-20 20:00 39.475177 -119.768997 175 5511ft 90kts
21-Mar-20 20:01 39.449713 -119.770597 181 6310ft 93kts
21-Mar-20 20:02 39.425556 -119.776556 185 7177ft 79kts
21-Mar-20 20:03 39.402551 -119.782416 185 7747ft 95kts
21-Mar-20 20:04 39.375914 -119.788817 185 8412ft 96kts
21-Mar-20 20:05 39.350371 -119.795002 185 9102ft 89kts
21-Mar-20 20:06 39.325198 -119.801054 185 9660ft 93kts
21-Mar-20 20:07 39.299577 -119.805123 177 10260ft 91kts
21-Mar-20 20:08 39.274781 -119.806775 177 10861ft 85kts
21-Mar-20 20:09 39.252275 -119.808473 196 11421ft 80kts
21-Mar-20 20:10 39.248276 -119.839484 272 11703ft 106kts
21-Mar-20 20:11 39.243747 -119.878956 260 12001ft 121kts
21-Mar-20 20:12 39.236476 -119.924002 259 12011ft 131kts
21-Mar-20 20:13 39.228914 -119.970248 259 12014ft 132kts
21-Mar-20 20:14 39.221290 -120.016743 259 12017ft 132kts
21-Mar-20 20:15 39.213634 -120.063310 259 12020ft 132kts
21-Mar-20 20:16 39.205972 -120.109799 259 12024ft 132kts
21-Mar-20 20:17 39.198283 -120.156324 259 12028ft 132kts
21-Mar-20 20:18 39.190580 -120.202819 259 12032ft 132kts
21-Mar-20 20:19 39.182737 -120.249164 258 12038ft 132kts
21-Mar-20 20:20 39.158941 -120.282948 212 12044ft 132kts
21-Mar-20 20:21 39.127839 -120.308594 210 12050ft 132kts
21-Mar-20 20:22 39.096628 -120.333582 210 12058ft 132kts
21-Mar-20 20:23 39.065278 -120.358523 210 12065ft 132kts
21-Mar-20 20:24 39.033935 -120.383408 210 12073ft 132kts
21-Mar-20 20:25 39.002684 -120.408190 210 12082ft 132kts
21-Mar-20 20:26 38.971425 -120.432950 210 12091ft 132kts
21-Mar-20 20:27 38.940237 -120.457627 210 12101ft 132kts
21-Mar-20 20:28 38.908957 -120.482351 210 12112ft 132kts
21-Mar-20 20:29 38.877724 -120.507010 210 12116ft 132kts
21-Mar-20 20:30 38.846447 -120.531710 209 12118ft 132kts
21-Mar-20 20:31 38.814734 -120.556675 210 12061ft 134kts
21-Mar-20 20:32 38.783334 -120.581388 210 12063ft 132kts
21-Mar-20 20:33 38.752036 -120.606000 210 12067ft 132kts
21-Mar-20 20:35 38.720692 -120.630614 210 12071ft 132kts
21-Mar-20 20:36 38.689384 -120.655179 209 12073ft 132kts
21-Mar-20 20:37 38.658005 -120.679767 209 12068ft 132kts
21-Mar-20 20:38 38.626808 -120.704200 209 12063ft 132kts
21-Mar-20 20:39 38.595490 -120.728679 209 12059ft 132kts
21-Mar-20 20:40 38.564673 -120.754033 217 12055ft 132kts
21-Mar-20 20:41 38.537206 -120.785577 222 12052ft 132kts
21-Mar-20 20:42 38.510659 -120.818355 223 12049ft 132kts
21-Mar-20 20:43 38.484374 -120.851252 223 12047ft 132kts
21-Mar-20 20:44 38.458058 -120.884252 223 12046ft 132kts
21-Mar-20 20:45 38.431743 -120.917237 223 12046ft 132kts
21-Mar-20 20:46 38.405409 -120.950214 223 12046ft 132kts
21-Mar-20 20:47 38.379110 -120.983114 223 12046ft 132kts
21-Mar-20 20:48 38.351041 -121.018453 225 11625ft 148kts
21-Mar-20 20:49 38.322585 -121.056144 224 11126ft 144kts
21-Mar-20 20:50 38.294213 -121.091713 223 10626ft 142kts
21-Mar-20 20:50 38.270704 -121.121025 223 10212ft 142kts
21-Mar-20 20:52 38.237859 -121.161929 223 9633ft 141kts
21-Mar-20 20:53 38.209697 -121.196958 223 9137ft 141kts
21-Mar-20 20:53 38.186381 -121.225932 223 8725ft 140kts
21-Mar-20 20:54 38.158711 -121.260277 223 8235ft 140kts
21-Mar-20 20:56 38.125613 -121.301352 223 7192ft 137kts
21-Mar-20 20:57 38.099740 -121.333390 223 6192ft 126kts
21-Mar-20 20:57 38.078101 -121.360126 223 5475ft 135kts
21-Mar-20 20:58 38.050575 -121.393373 224 4480ft 135kts
21-Mar-20 20:59 38.026080 -121.425049 225 3484ft 120kts
21-Mar-20 21:00 38.001694 -121.454193 220 2760ft 120kts
21-Mar-20 21:01 38.003284 -121.485479 307 2757ft 100kts
21-Mar-20 21:02 38.019377 -121.517608 307 2777ft 111kts
21-Mar-20 21:03 38.038288 -121.516843 78 2771ft 92kts
21-Mar-20 21:04 38.044695 -121.487331 96 2772ft 87kts
21-Mar-20 21:05 38.028742 -121.462972 123 2782ft 90kts
21-Mar-20 21:06 38.013690 -121.437882 116 2791ft 88kts
21-Mar-20 21:07 37.999172 -121.411455 121 2572ft 93kts
21-Mar-20 21:08 37.984084 -121.386321 121 2078ft 87kts
21-Mar-20 21:09 37.969344 -121.361789 121 1837ft 90kts
21-Mar-20 21:10 37.954640 -121.336691 121 1808ft 89kts
21-Mar-20 21:11 37.939174 -121.311490 121 1317ft 88kts
21-Mar-20 21:12 37.924352 -121.287089 121 822ft 87kts
21-Mar-20 21:13 37.909878 -121.263368 120 377ft 69kts
21-Mar-20 21:14 37.899121 -121.245675 122 28ft 47kts
21-Mar-20 21:15 37.894237 -121.239065 203 27ft 0kts
21-Mar-20 21:16 37.892497 -121.241752 15 27ft 0kts

Navigation Log

Ident Type
Flight plan parsing failed, navigation log unavailable